createdAt,value
2018-03-06T00:00:32.101Z,987.67
2018-03-06T00:01:32.101Z,987.62
2018-03-06T00:02:32.107Z,987.64
2018-03-06T00:03:32.212Z,987.64
2018-03-06T00:04:32.189Z,987.66
2018-03-06T00:05:32.563Z,987.67
2018-03-06T00:06:32.301Z,987.68
2018-03-06T00:07:32.277Z,987.66
2018-03-06T00:08:32.447Z,987.67
2018-03-06T00:09:32.441Z,987.66
2018-03-06T00:10:32.357Z,987.65
2018-03-06T00:11:32.436Z,987.69
2018-03-06T00:12:32.780Z,987.66
2018-03-06T00:13:32.635Z,987.70
2018-03-06T00:14:32.465Z,987.67
2018-03-06T00:15:32.596Z,987.69
2018-03-06T00:16:32.923Z,987.73
2018-03-06T00:17:32.578Z,987.72
2018-03-06T00:18:32.661Z,987.74
2018-03-06T00:19:33.022Z,987.78
2018-03-06T00:20:32.710Z,987.80
2018-03-06T00:21:32.750Z,987.78
2018-03-06T00:22:32.718Z,987.76
2018-03-06T00:23:32.830Z,987.76
2018-03-06T00:24:32.792Z,987.72
2018-03-06T00:25:32.847Z,987.70
2018-03-06T00:26:33.193Z,987.68
2018-03-06T00:27:32.865Z,987.63
2018-03-06T00:28:33.010Z,987.62
2018-03-06T00:29:33.018Z,987.60
2018-03-06T00:30:33.079Z,987.56
2018-03-06T00:31:33.086Z,987.56
2018-03-06T00:32:33.103Z,987.56
2018-03-06T00:33:33.480Z,987.54
2018-03-06T00:34:33.160Z,987.53
2018-03-06T00:35:33.122Z,987.54
2018-03-06T00:36:33.211Z,987.50
2018-03-06T00:37:33.288Z,987.55
2018-03-06T00:38:33.375Z,987.57
2018-03-06T00:39:33.233Z,987.53
2018-03-06T00:40:33.666Z,987.55
2018-03-06T00:41:33.307Z,987.56
2018-03-06T00:42:33.331Z,987.56
2018-03-06T00:43:33.413Z,987.56
2018-03-06T00:44:33.520Z,987.56
2018-03-06T00:45:33.439Z,987.57
2018-03-06T00:46:33.446Z,987.62
2018-03-06T00:47:33.867Z,987.63
2018-03-06T00:48:33.578Z,987.66
2018-03-06T00:49:33.584Z,987.66
2018-03-06T00:50:33.562Z,987.65
2018-03-06T00:51:33.745Z,987.65
2018-03-06T00:52:33.801Z,987.61
2018-03-06T00:53:33.740Z,987.60
2018-03-06T00:54:34.053Z,987.55
2018-03-06T00:55:33.803Z,987.57
2018-03-06T00:56:33.840Z,987.52
2018-03-06T00:57:34.103Z,987.51
2018-03-06T00:58:33.836Z,987.50
2018-03-06T00:59:33.900Z,987.55
2018-03-06T01:00:33.886Z,987.45
2018-03-06T01:01:34.236Z,987.44
2018-03-06T01:02:34.104Z,987.46
2018-03-06T01:03:33.947Z,987.47
2018-03-06T01:04:34.131Z,987.51
2018-03-06T01:05:34.055Z,987.49
2018-03-06T01:06:34.104Z,987.51
2018-03-06T01:07:34.200Z,987.53
2018-03-06T01:08:34.519Z,987.53
2018-03-06T01:09:34.298Z,987.49
2018-03-06T01:10:34.243Z,987.48
2018-03-06T01:11:34.357Z,987.48
2018-03-06T01:12:34.273Z,987.52
2018-03-06T01:13:34.431Z,987.51
2018-03-06T01:14:34.681Z,987.52
2018-03-06T01:15:34.347Z,987.51
2018-03-06T01:16:34.417Z,987.52
2018-03-06T01:17:34.451Z,987.55
2018-03-06T01:18:34.489Z,987.47
2018-03-06T01:19:34.514Z,987.45
2018-03-06T01:20:34.864Z,987.48
2018-03-06T01:21:34.593Z,987.48
2018-03-06T01:22:34.615Z,987.44
2018-03-06T01:23:34.752Z,987.41
2018-03-06T01:24:34.618Z,987.44
2018-03-06T01:25:34.709Z,987.48
2018-03-06T01:26:35.024Z,987.41
2018-03-06T01:27:34.754Z,987.44
2018-03-06T01:28:34.950Z,987.42
2018-03-06T01:29:34.774Z,987.43
2018-03-06T01:30:34.847Z,987.41
2018-03-06T01:31:34.936Z,987.39
2018-03-06T01:32:35.169Z,987.35
2018-03-06T01:33:34.936Z,987.38
2018-03-06T01:34:35.110Z,987.36
2018-03-06T01:35:35.010Z,987.32
2018-03-06T01:36:35.027Z,987.36
2018-03-06T01:37:35.051Z,987.36
2018-03-06T01:38:35.342Z,987.35
2018-03-06T01:39:35.058Z,987.33
2018-03-06T01:40:35.092Z,987.29
2018-03-06T01:41:35.098Z,987.24
2018-03-06T01:42:35.157Z,987.23
2018-03-06T01:43:36.417Z,987.25
2018-03-06T01:44:35.541Z,987.28
2018-03-06T01:45:35.242Z,987.24
2018-03-06T01:46:35.413Z,987.21
2018-03-06T01:47:35.320Z,987.15
2018-03-06T01:48:35.389Z,987.18
2018-03-06T01:49:35.436Z,987.14
2018-03-06T01:50:35.702Z,987.15
2018-03-06T01:51:35.502Z,987.15
2018-03-06T01:52:35.444Z,987.15
2018-03-06T01:53:35.516Z,987.13
2018-03-06T01:54:35.567Z,987.13
2018-03-06T01:55:35.534Z,987.12
2018-03-06T01:56:35.598Z,987.17
2018-03-06T01:57:35.972Z,987.16
2018-03-06T01:58:35.635Z,987.18
2018-03-06T01:59:35.699Z,987.22
2018-03-06T02:00:35.739Z,987.22
2018-03-06T02:01:35.770Z,987.22
2018-03-06T02:02:35.814Z,987.23
2018-03-06T02:03:35.780Z,987.26
2018-03-06T02:04:36.263Z,987.23
2018-03-06T02:05:35.837Z,987.20
2018-03-06T02:06:35.882Z,987.17
2018-03-06T02:07:35.950Z,987.17
2018-03-06T02:08:35.989Z,987.19
2018-03-06T02:09:35.964Z,987.26
2018-03-06T02:10:36.028Z,987.30
2018-03-06T02:11:36.360Z,987.31
2018-03-06T02:12:36.070Z,987.28
2018-03-06T02:13:36.116Z,987.29
2018-03-06T02:14:36.199Z,987.30
2018-03-06T02:15:36.191Z,987.33
2018-03-06T02:16:36.227Z,987.35
2018-03-06T02:17:36.351Z,987.30
2018-03-06T02:18:36.547Z,987.28
2018-03-06T02:19:36.366Z,987.27
2018-03-06T02:20:36.294Z,987.31
2018-03-06T02:21:36.331Z,987.22
2018-03-06T02:22:36.405Z,987.26
2018-03-06T02:23:36.376Z,987.29
2018-03-06T02:24:36.665Z,987.31
2018-03-06T02:25:36.740Z,987.31
2018-03-06T02:26:36.499Z,987.28
2018-03-06T02:27:36.568Z,987.30
2018-03-06T02:28:36.546Z,987.21
2018-03-06T02:29:36.589Z,987.18
2018-03-06T02:30:36.593Z,987.17
2018-03-06T02:31:36.621Z,987.21
2018-03-06T02:32:37.019Z,987.21
2018-03-06T02:33:36.700Z,987.20
2018-03-06T02:34:36.708Z,987.15
2018-03-06T02:35:36.748Z,987.16
2018-03-06T02:36:36.797Z,987.13
2018-03-06T02:37:36.804Z,987.14
2018-03-06T02:38:36.863Z,987.10
2018-03-06T02:39:37.163Z,987.10
2018-03-06T02:40:36.922Z,987.09
2018-03-06T02:41:36.938Z,987.07
2018-03-06T02:42:36.994Z,986.99
2018-03-06T02:43:36.987Z,987.00
2018-03-06T02:44:37.024Z,987.05
2018-03-06T02:45:37.165Z,987.05
2018-03-06T02:46:37.394Z,987.01
2018-03-06T02:47:37.131Z,987.02
2018-03-06T02:48:37.186Z,986.98
2018-03-06T02:49:37.169Z,986.97
2018-03-06T02:50:37.245Z,987.00
2018-03-06T02:51:37.324Z,987.01
2018-03-06T02:52:37.289Z,986.99
2018-03-06T02:53:37.598Z,987.05
2018-03-06T02:54:37.330Z,987.08
2018-03-06T02:55:37.367Z,987.03
2018-03-06T02:56:37.408Z,987.07
2018-03-06T02:57:37.429Z,987.07
2018-03-06T02:58:37.462Z,987.07
2018-03-06T02:59:37.524Z,987.06
2018-03-06T03:00:37.812Z,987.06
2018-03-06T03:01:37.549Z,987.02
2018-03-06T03:02:37.634Z,986.99
2018-03-06T03:03:37.605Z,986.99
2018-03-06T03:04:37.644Z,986.93
2018-03-06T03:05:37.658Z,986.96
2018-03-06T03:06:37.793Z,986.91
2018-03-06T03:07:38.036Z,986.90
2018-03-06T03:08:37.756Z,986.88
2018-03-06T03:09:37.790Z,986.87
2018-03-06T03:10:37.815Z,986.87
2018-03-06T03:11:37.873Z,986.87
2018-03-06T03:12:37.869Z,986.83
2018-03-06T03:13:38.234Z,986.85
2018-03-06T03:14:37.956Z,986.89
2018-03-06T03:15:37.954Z,986.88
2018-03-06T03:16:38.044Z,986.85
2018-03-06T03:17:38.036Z,986.81
2018-03-06T03:18:38.050Z,986.83
2018-03-06T03:19:38.396Z,986.82
2018-03-06T03:20:38.116Z,986.82
2018-03-06T03:21:38.214Z,986.82
2018-03-06T03:22:38.218Z,986.81
2018-03-06T03:23:38.267Z,986.87
2018-03-06T03:24:38.262Z,986.91
2018-03-06T03:25:38.632Z,986.88
2018-03-06T03:26:38.288Z,986.91
2018-03-06T03:27:38.381Z,986.88
2018-03-06T03:28:38.358Z,986.94
2018-03-06T03:29:38.399Z,986.91
2018-03-06T03:30:38.418Z,986.88
2018-03-06T03:31:38.775Z,986.87
2018-03-06T03:32:38.532Z,986.92
2018-03-06T03:33:38.505Z,986.94
2018-03-06T03:34:38.555Z,986.89
2018-03-06T03:35:38.574Z,986.88
2018-03-06T03:36:38.646Z,986.87
2018-03-06T03:37:38.946Z,986.86
2018-03-06T03:38:38.677Z,986.88
2018-03-06T03:39:38.693Z,986.87
2018-03-06T03:40:38.716Z,986.86
2018-03-06T03:41:38.765Z,986.85
2018-03-06T03:42:38.801Z,986.88
2018-03-06T03:43:39.125Z,986.87
2018-03-06T03:44:38.848Z,986.88
2018-03-06T03:45:38.873Z,986.85
2018-03-06T03:46:38.900Z,986.83
2018-03-06T03:47:39.082Z,986.86
2018-03-06T03:48:38.988Z,986.82
2018-03-06T03:49:39.307Z,986.82
2018-03-06T03:50:39.094Z,986.83
2018-03-06T03:51:39.086Z,986.79
2018-03-06T03:52:39.080Z,986.77
2018-03-06T03:53:39.176Z,986.78
2018-03-06T03:54:39.151Z,986.78
2018-03-06T03:55:39.544Z,986.80
2018-03-06T03:56:39.218Z,986.82
2018-03-06T03:57:39.322Z,986.84
2018-03-06T03:58:39.275Z,986.83
2018-03-06T03:59:39.328Z,986.86
2018-03-06T04:00:39.359Z,986.90
2018-03-06T04:01:39.661Z,986.92
2018-03-06T04:02:39.522Z,986.95
2018-03-06T04:03:39.462Z,986.91
2018-03-06T04:04:39.470Z,986.93
2018-03-06T04:05:39.537Z,986.88
2018-03-06T04:06:39.535Z,986.89
2018-03-06T04:07:40.042Z,986.87
2018-03-06T04:08:39.573Z,986.86
2018-03-06T04:09:39.735Z,986.86
2018-03-06T04:10:39.660Z,986.85
2018-03-06T04:11:39.748Z,986.83
2018-03-06T04:12:39.779Z,986.83
2018-03-06T04:13:40.031Z,986.85
2018-03-06T04:14:39.751Z,986.82
2018-03-06T04:15:39.816Z,986.80
2018-03-06T04:16:39.818Z,986.79
2018-03-06T04:17:39.900Z,986.76
2018-03-06T04:18:39.976Z,986.73
2018-03-06T04:19:40.217Z,986.69
2018-03-06T04:20:40.004Z,986.70
2018-03-06T04:21:39.967Z,986.65
2018-03-06T04:22:40.028Z,986.64
2018-03-06T04:23:40.083Z,986.64
2018-03-06T04:24:40.096Z,986.68
2018-03-06T04:25:40.407Z,986.68
2018-03-06T04:26:40.188Z,986.73
2018-03-06T04:27:40.165Z,986.71
2018-03-06T04:28:40.330Z,986.71
2018-03-06T04:29:40.235Z,986.67
2018-03-06T04:30:40.280Z,986.72
2018-03-06T04:31:40.264Z,986.73
2018-03-06T04:32:40.606Z,986.70
2018-03-06T04:33:40.397Z,986.68
2018-03-06T04:34:40.400Z,986.68
2018-03-06T04:35:40.443Z,986.72
2018-03-06T04:36:40.423Z,986.71
2018-03-06T04:37:40.487Z,986.69
2018-03-06T04:38:40.540Z,986.73
2018-03-06T04:39:40.822Z,986.72
2018-03-06T04:40:40.564Z,986.71
2018-03-06T04:41:40.591Z,986.73
2018-03-06T04:42:40.601Z,986.77
2018-03-06T04:43:40.663Z,986.77
2018-03-06T04:44:40.692Z,986.77
2018-03-06T04:45:40.720Z,986.78
2018-03-06T04:46:41.029Z,986.76
2018-03-06T04:47:40.814Z,986.75
2018-03-06T04:48:40.804Z,986.77
2018-03-06T04:49:40.963Z,986.79
2018-03-06T04:50:40.848Z,986.79
2018-03-06T04:51:40.913Z,986.78
2018-03-06T04:52:40.984Z,986.74
2018-03-06T04:53:41.252Z,986.77
2018-03-06T04:54:41.004Z,986.76
2018-03-06T04:55:41.111Z,986.79
2018-03-06T04:56:41.040Z,986.77
2018-03-06T04:57:41.082Z,986.76
2018-03-06T04:58:41.110Z,986.76
2018-03-06T04:59:41.161Z,986.76
2018-03-06T05:00:41.514Z,986.79
2018-03-06T05:01:41.206Z,986.77
2018-03-06T05:02:41.375Z,986.77
2018-03-06T05:03:41.248Z,986.78
2018-03-06T05:04:41.329Z,986.78
2018-03-06T05:05:41.392Z,986.76
2018-03-06T05:06:41.347Z,986.79
2018-03-06T05:07:41.721Z,986.80
2018-03-06T05:08:41.477Z,986.73
2018-03-06T05:09:41.484Z,986.72
2018-03-06T05:10:41.462Z,986.71
2018-03-06T05:11:41.500Z,986.72
2018-03-06T05:12:41.535Z,986.71
2018-03-06T05:13:41.561Z,986.73
2018-03-06T05:14:41.934Z,986.73
2018-03-06T05:15:41.707Z,986.74
2018-03-06T05:16:41.637Z,986.77
2018-03-06T05:17:41.719Z,986.75
2018-03-06T05:18:41.702Z,986.75
2018-03-06T05:19:41.733Z,986.74
2018-03-06T05:20:41.922Z,986.75
2018-03-06T05:21:42.103Z,986.70
2018-03-06T05:22:41.863Z,986.72
2018-03-06T05:23:41.873Z,986.72
2018-03-06T05:24:41.922Z,986.70
2018-03-06T05:25:42.003Z,986.68
2018-03-06T05:26:42.073Z,986.68
2018-03-06T05:27:41.987Z,986.69
2018-03-06T05:28:42.371Z,986.73
2018-03-06T05:29:42.160Z,986.69
2018-03-06T05:30:42.107Z,986.65
2018-03-06T05:31:42.248Z,986.68
2018-03-06T05:32:42.131Z,986.66
2018-03-06T05:33:42.176Z,986.67
2018-03-06T05:34:42.256Z,986.67
2018-03-06T05:35:42.552Z,986.66
2018-03-06T05:36:42.301Z,986.62
2018-03-06T05:37:42.292Z,986.62
2018-03-06T05:38:42.345Z,986.62
2018-03-06T05:39:42.418Z,986.64
2018-03-06T05:40:42.391Z,986.64
2018-03-06T05:41:42.467Z,986.67
2018-03-06T05:42:42.867Z,986.66
2018-03-06T05:43:42.508Z,986.70
2018-03-06T05:44:42.684Z,986.69
2018-03-06T05:45:42.623Z,986.69
2018-03-06T05:46:43.011Z,986.72
2018-03-06T05:47:42.609Z,986.70
2018-03-06T05:48:42.962Z,986.69
2018-03-06T05:49:42.706Z,986.70
2018-03-06T05:50:42.738Z,986.72
2018-03-06T05:51:42.772Z,986.71
2018-03-06T05:52:42.941Z,986.71
2018-03-06T05:53:42.794Z,986.72
2018-03-06T05:54:43.146Z,986.72
2018-03-06T05:55:42.875Z,986.73
2018-03-06T05:56:42.970Z,986.73
2018-03-06T05:57:42.929Z,986.73
2018-03-06T05:58:43.032Z,986.77
2018-03-06T05:59:43.038Z,986.74
2018-03-06T06:00:43.314Z,986.73
2018-03-06T06:01:43.065Z,986.72
2018-03-06T06:02:43.082Z,986.71
2018-03-06T06:03:43.156Z,986.70
2018-03-06T06:04:43.289Z,986.72
2018-03-06T06:05:43.401Z,986.72
2018-03-06T06:06:43.549Z,986.73
2018-03-06T06:07:43.281Z,986.71
2018-03-06T06:08:43.263Z,986.73
2018-03-06T06:09:43.461Z,986.74
2018-03-06T06:10:43.355Z,986.77
2018-03-06T06:11:43.384Z,986.76
2018-03-06T06:12:43.683Z,986.80
2018-03-06T06:13:43.483Z,986.82
2018-03-06T06:14:43.574Z,986.82
2018-03-06T06:15:43.510Z,986.82
2018-03-06T06:16:43.699Z,986.78
2018-03-06T06:17:43.585Z,986.82
2018-03-06T06:18:43.966Z,986.80
2018-03-06T06:19:44.032Z,986.83
2018-03-06T06:20:43.884Z,986.83
2018-03-06T06:21:43.731Z,986.87
2018-03-06T06:22:43.756Z,986.85
2018-03-06T06:23:43.820Z,986.89
2018-03-06T06:24:43.758Z,986.88
2018-03-06T06:25:44.175Z,986.92
2018-03-06T06:26:43.888Z,986.91
2018-03-06T06:27:43.957Z,986.93
2018-03-06T06:28:43.902Z,986.94
2018-03-06T06:29:43.954Z,986.94
2018-03-06T06:30:43.985Z,986.88
2018-03-06T06:31:44.456Z,986.92
2018-03-06T06:32:44.059Z,986.93
2018-03-06T06:33:44.006Z,986.95
2018-03-06T06:34:44.147Z,986.94
2018-03-06T06:35:44.129Z,986.95
2018-03-06T06:36:44.149Z,986.96
2018-03-06T06:37:44.598Z,986.95
2018-03-06T06:38:44.230Z,986.94
2018-03-06T06:39:44.279Z,986.98
2018-03-06T06:40:44.265Z,986.97
2018-03-06T06:41:44.274Z,986.98
2018-03-06T06:42:44.470Z,987.01
2018-03-06T06:43:44.653Z,987.03
2018-03-06T06:44:44.539Z,987.02
2018-03-06T06:45:44.573Z,987.02
2018-03-06T06:46:44.490Z,987.00
2018-03-06T06:47:44.788Z,987.01
2018-03-06T06:48:44.529Z,987.00
2018-03-06T06:49:44.924Z,987.02
2018-03-06T06:50:44.785Z,987.00
2018-03-06T06:51:44.631Z,986.99
2018-03-06T06:52:44.691Z,987.00
2018-03-06T06:53:44.706Z,986.99
2018-03-06T06:54:44.857Z,987.03
2018-03-06T06:55:45.019Z,986.96
2018-03-06T06:56:44.763Z,986.99
2018-03-06T06:57:44.811Z,987.01
2018-03-06T06:58:44.840Z,986.99
2018-03-06T06:59:44.836Z,986.97
2018-03-06T07:00:44.891Z,986.99
2018-03-06T07:01:45.238Z,986.99
2018-03-06T07:02:44.972Z,986.99
2018-03-06T07:03:44.974Z,986.98
2018-03-06T07:04:45.042Z,986.94
2018-03-06T07:05:45.074Z,986.94
2018-03-06T07:06:45.056Z,986.98
2018-03-06T07:07:45.140Z,986.89
2018-03-06T07:08:45.513Z,986.93
2018-03-06T07:09:45.169Z,986.94
2018-03-06T07:10:45.232Z,986.97
2018-03-06T07:11:45.232Z,986.97
2018-03-06T07:12:45.232Z,986.93
2018-03-06T07:13:45.288Z,986.95
2018-03-06T07:14:45.351Z,986.97
2018-03-06T07:15:45.664Z,986.96
2018-03-06T07:16:45.342Z,986.93
2018-03-06T07:17:45.356Z,986.93
2018-03-06T07:18:45.453Z,986.94
2018-03-06T07:19:45.460Z,986.94
2018-03-06T07:20:45.533Z,986.93
2018-03-06T07:21:45.555Z,986.94
2018-03-06T07:22:45.972Z,986.98
2018-03-06T07:23:45.597Z,986.91
2018-03-06T07:24:45.687Z,986.97
2018-03-06T07:25:45.672Z,986.94
2018-03-06T07:26:45.681Z,986.95
2018-03-06T07:27:45.759Z,986.94
2018-03-06T07:28:45.838Z,986.96
2018-03-06T07:29:46.113Z,986.96
2018-03-06T07:30:45.859Z,986.98
2018-03-06T07:31:45.803Z,987.02
2018-03-06T07:32:45.885Z,987.02
2018-03-06T07:33:45.881Z,987.00
2018-03-06T07:34:45.917Z,986.99
2018-03-06T07:35:46.254Z,987.05
2018-03-06T07:36:45.985Z,987.02
2018-03-06T07:37:45.985Z,987.04
2018-03-06T07:38:46.136Z,987.01
2018-03-06T07:39:46.043Z,986.99
2018-03-06T07:40:46.174Z,986.96
2018-03-06T07:41:46.467Z,986.99
2018-03-06T07:42:46.163Z,986.98
2018-03-06T07:43:46.157Z,986.99
2018-03-06T07:44:46.233Z,987.01
2018-03-06T07:45:46.287Z,986.96
2018-03-06T07:46:46.258Z,986.99
2018-03-06T07:47:46.610Z,986.98
2018-03-06T07:48:46.321Z,987.03
2018-03-06T07:49:46.341Z,986.98
2018-03-06T07:50:46.459Z,987.00
2018-03-06T07:51:46.458Z,986.99
2018-03-06T07:52:46.473Z,987.02
2018-03-06T07:53:46.786Z,986.97
2018-03-06T07:54:46.514Z,986.98
2018-03-06T07:55:46.585Z,986.98
2018-03-06T07:56:46.607Z,986.95
2018-03-06T07:57:46.618Z,986.93
2018-03-06T07:58:46.724Z,986.97
2018-03-06T07:59:47.009Z,986.95
2018-03-06T08:00:46.664Z,986.97
2018-03-06T08:01:46.739Z,986.94
2018-03-06T08:02:46.789Z,986.91
2018-03-06T08:03:46.829Z,986.93
2018-03-06T08:04:46.822Z,986.94
2018-03-06T08:05:47.161Z,986.88
2018-03-06T08:06:46.891Z,986.87
2018-03-06T08:07:46.985Z,986.94
2018-03-06T08:09:47.011Z,986.93
2018-03-06T08:10:47.056Z,986.90
2018-03-06T08:11:47.324Z,986.90
2018-03-06T08:12:47.112Z,986.88
2018-03-06T08:13:47.107Z,986.90
2018-03-06T08:14:47.115Z,986.90
2018-03-06T08:15:47.272Z,986.89
2018-03-06T08:16:47.296Z,986.93
2018-03-06T08:17:48.150Z,986.95
2018-03-06T08:18:47.305Z,986.93
2018-03-06T08:19:47.262Z,986.93
2018-03-06T08:20:47.304Z,986.94
2018-03-06T08:21:47.371Z,986.93
2018-03-06T08:22:47.356Z,986.98
2018-03-06T08:23:47.681Z,986.99
2018-03-06T08:24:47.436Z,986.97
2018-03-06T08:25:47.455Z,987.00
2018-03-06T08:26:47.478Z,986.96
2018-03-06T08:27:47.571Z,986.97
2018-03-06T08:28:47.543Z,986.92
2018-03-06T08:29:47.924Z,986.97
2018-03-06T08:30:47.609Z,986.96
2018-03-06T08:31:47.648Z,986.91
2018-03-06T08:32:47.731Z,986.95
2018-03-06T08:33:47.707Z,986.90
2018-03-06T08:34:47.756Z,986.92
2018-03-06T08:35:48.058Z,986.92
2018-03-06T08:36:47.799Z,986.92
2018-03-06T08:37:48.069Z,986.92
2018-03-06T08:38:47.939Z,986.88
2018-03-06T08:39:49.638Z,986.90
2018-03-06T08:40:48.032Z,986.89
2018-03-06T08:41:48.312Z,986.84
2018-03-06T08:42:48.076Z,986.84
2018-03-06T08:43:48.038Z,986.77
2018-03-06T08:44:48.144Z,986.83
2018-03-06T08:45:48.113Z,986.86
2018-03-06T08:46:48.166Z,986.80
2018-03-06T08:47:48.542Z,986.83
2018-03-06T08:48:48.216Z,986.83
2018-03-06T08:49:48.246Z,986.84
2018-03-06T08:50:48.275Z,986.85
2018-03-06T08:51:48.297Z,986.83
2018-03-06T08:52:48.330Z,986.88
2018-03-06T08:53:48.635Z,986.87
2018-03-06T08:54:48.434Z,986.83
2018-03-06T08:55:48.392Z,986.89
2018-03-06T08:56:48.441Z,986.87
2018-03-06T08:57:48.517Z,986.85
2018-03-06T08:58:48.522Z,986.86
2018-03-06T08:59:48.840Z,986.88
2018-03-06T09:00:48.591Z,986.83
2018-03-06T09:01:48.665Z,986.90
2018-03-06T09:02:48.601Z,986.88
2018-03-06T09:03:48.639Z,986.85
2018-03-06T09:04:48.706Z,986.88
2018-03-06T09:05:49.012Z,986.88
2018-03-06T09:06:48.750Z,986.89
2018-03-06T09:07:48.803Z,986.89
2018-03-06T09:08:48.940Z,986.93
2018-03-06T09:09:48.817Z,986.95
2018-03-06T09:10:48.892Z,986.93
2018-03-06T09:11:49.238Z,986.92
2018-03-06T09:12:48.988Z,986.90
2018-03-06T09:13:49.010Z,986.90
2018-03-06T09:14:49.044Z,986.92
2018-03-06T09:15:49.021Z,986.87
2018-03-06T09:16:49.072Z,986.85
2018-03-06T09:17:49.628Z,986.84
2018-03-06T09:18:49.138Z,986.85
2018-03-06T09:19:49.302Z,986.83
2018-03-06T09:20:49.210Z,986.80
2018-03-06T09:21:49.232Z,986.83
2018-03-06T09:22:49.244Z,986.83
2018-03-06T09:23:49.617Z,986.74
2018-03-06T09:24:49.300Z,986.77
2018-03-06T09:25:49.337Z,986.79
2018-03-06T09:26:49.392Z,986.76
2018-03-06T09:27:49.421Z,986.77
2018-03-06T09:28:49.534Z,986.73
2018-03-06T09:29:49.845Z,986.74
2018-03-06T09:30:49.513Z,986.78
2018-03-06T09:31:49.556Z,986.75
2018-03-06T09:32:49.654Z,986.74
2018-03-06T09:33:49.584Z,986.80
2018-03-06T09:34:49.638Z,986.80
2018-03-06T09:35:49.978Z,986.80
2018-03-06T09:36:49.672Z,986.81
2018-03-06T09:37:49.731Z,986.86
2018-03-06T09:38:49.807Z,986.83
2018-03-06T09:39:49.831Z,986.83
2018-03-06T09:40:49.846Z,986.83
2018-03-06T09:41:50.174Z,986.85
2018-03-06T09:42:49.894Z,986.84
2018-03-06T09:43:49.922Z,986.86
2018-03-06T09:44:50.014Z,986.81
2018-03-06T09:45:49.953Z,986.83
2018-03-06T09:46:49.987Z,986.83
2018-03-06T09:47:50.315Z,986.80
2018-03-06T09:48:50.052Z,986.83
2018-03-06T09:49:50.314Z,986.86
2018-03-06T09:50:50.202Z,986.84
2018-03-06T09:51:50.194Z,986.85
2018-03-06T09:52:50.176Z,986.81
2018-03-06T09:53:50.570Z,986.83
2018-03-06T09:54:50.282Z,986.82
2018-03-06T09:55:50.326Z,986.81
2018-03-06T09:56:50.303Z,986.77
2018-03-06T09:57:50.350Z,986.79
2018-03-06T09:58:50.417Z,986.79
2018-03-06T09:59:50.739Z,986.78
2018-03-06T10:00:50.437Z,986.81
2018-03-06T10:01:50.493Z,986.80
2018-03-06T10:02:50.527Z,986.81
2018-03-06T10:03:50.566Z,986.82
2018-03-06T10:04:50.624Z,986.82
2018-03-06T10:05:50.916Z,986.81
2018-03-06T10:06:50.618Z,986.80
2018-03-06T10:07:50.665Z,986.79
2018-03-06T10:08:50.874Z,986.82
2018-03-06T10:09:50.770Z,986.79
2018-03-06T10:10:50.854Z,986.81
2018-03-06T10:11:50.819Z,986.79
2018-03-06T10:12:51.203Z,986.80
2018-03-06T10:13:50.882Z,986.78
2018-03-06T10:14:50.990Z,986.80
2018-03-06T10:15:50.918Z,986.83
2018-03-06T10:16:50.954Z,986.79
2018-03-06T10:17:51.011Z,986.78
2018-03-06T10:18:51.040Z,986.75
2018-03-06T10:19:51.355Z,986.76
2018-03-06T10:20:51.114Z,986.76
2018-03-06T10:21:51.168Z,986.75
2018-03-06T10:22:51.210Z,986.76
2018-03-06T10:23:51.273Z,986.75
2018-03-06T10:24:51.235Z,986.75
2018-03-06T10:25:51.565Z,986.76
2018-03-06T10:26:51.278Z,986.81
2018-03-06T10:27:51.327Z,986.78
2018-03-06T10:28:51.366Z,986.80
2018-03-06T10:29:51.368Z,986.79
2018-03-06T10:30:51.440Z,986.80
2018-03-06T10:31:51.777Z,986.84
2018-03-06T10:32:51.500Z,986.79
2018-03-06T10:33:51.501Z,986.81
2018-03-06T10:34:51.559Z,986.80
2018-03-06T10:35:51.561Z,986.80
2018-03-06T10:36:51.646Z,986.77
2018-03-06T10:37:51.967Z,986.77
2018-03-06T10:38:51.636Z,986.80
2018-03-06T10:39:51.749Z,986.77
2018-03-06T10:40:51.755Z,986.80
2018-03-06T10:41:51.739Z,986.80
2018-03-06T10:42:51.822Z,986.81
2018-03-06T10:43:52.197Z,986.78
2018-03-06T10:44:51.898Z,986.79
2018-03-06T10:45:51.963Z,986.76
2018-03-06T10:46:51.929Z,986.77
2018-03-06T10:47:51.973Z,986.77
2018-03-06T10:48:52.041Z,986.76
2018-03-06T10:49:52.328Z,986.77
2018-03-06T10:50:52.021Z,986.77
2018-03-06T10:51:52.105Z,986.75
2018-03-06T10:52:52.089Z,986.76
2018-03-06T10:53:52.137Z,986.72
2018-03-06T10:54:52.180Z,986.77
2018-03-06T10:55:52.605Z,986.74
2018-03-06T10:56:52.254Z,986.80
2018-03-06T10:57:52.311Z,986.81
2018-03-06T10:58:52.306Z,986.81
2018-03-06T10:59:52.352Z,986.77
2018-03-06T11:00:52.373Z,986.77
2018-03-06T11:01:52.696Z,986.78
2018-03-06T11:02:52.471Z,986.78
2018-03-06T11:03:52.507Z,986.77
2018-03-06T11:04:52.539Z,986.75
2018-03-06T11:05:52.573Z,986.78
2018-03-06T11:06:52.557Z,986.77
2018-03-06T11:07:52.928Z,986.75
2018-03-06T11:08:52.659Z,986.74
2018-03-06T11:09:52.681Z,986.79
2018-03-06T11:10:52.693Z,986.77
2018-03-06T11:11:52.728Z,986.78
2018-03-06T11:12:52.775Z,986.77
2018-03-06T11:13:53.095Z,986.76
2018-03-06T11:14:52.852Z,986.73
2018-03-06T11:15:53.163Z,986.76
2018-03-06T11:16:52.897Z,986.68
2018-03-06T11:17:52.946Z,986.71
2018-03-06T11:18:52.983Z,986.73
2018-03-06T11:19:53.307Z,986.76
2018-03-06T11:20:53.047Z,986.72
2018-03-06T11:21:53.090Z,986.75
2018-03-06T11:22:53.097Z,986.78
2018-03-06T11:23:53.114Z,986.72
2018-03-06T11:24:53.181Z,986.76
2018-03-06T11:25:53.526Z,986.76
2018-03-06T11:26:53.218Z,986.74
2018-03-06T11:27:53.274Z,986.73
2018-03-06T11:28:53.282Z,986.75
2018-03-06T11:29:53.367Z,986.74
2018-03-06T11:30:53.373Z,986.72
2018-03-06T11:31:53.743Z,986.77
2018-03-06T11:32:53.428Z,986.75
2018-03-06T11:33:53.468Z,986.72
2018-03-06T11:34:53.470Z,986.75
2018-03-06T11:35:53.510Z,986.75
2018-03-06T11:36:53.558Z,986.75
2018-03-06T11:37:53.913Z,986.75
2018-03-06T11:38:53.643Z,986.76
2018-03-06T11:39:53.660Z,986.73
2018-03-06T11:40:53.689Z,986.70
2018-03-06T11:41:53.689Z,986.70
2018-03-06T11:42:53.740Z,986.70
2018-03-06T11:43:54.085Z,986.69
2018-03-06T11:44:53.926Z,986.72
2018-03-06T11:45:53.884Z,986.69
2018-03-06T11:46:53.887Z,986.71
2018-03-06T11:47:54.037Z,986.68
2018-03-06T11:48:53.961Z,986.70
2018-03-06T11:49:54.288Z,986.71
2018-03-06T11:50:54.002Z,986.71
2018-03-06T11:51:54.080Z,986.69
2018-03-06T11:52:54.095Z,986.69
2018-03-06T11:53:54.149Z,986.67
2018-03-06T11:54:54.174Z,986.71
2018-03-06T11:55:54.519Z,986.67
2018-03-06T11:56:54.235Z,986.67
2018-03-06T11:57:54.340Z,986.70
2018-03-06T11:58:54.312Z,986.73
2018-03-06T11:59:54.366Z,986.70
2018-03-06T12:00:54.397Z,986.72
2018-03-06T12:01:54.760Z,986.71
2018-03-06T12:02:54.450Z,986.72
2018-03-06T12:03:54.505Z,986.74
2018-03-06T12:04:54.494Z,986.77
2018-03-06T12:05:54.532Z,986.78
2018-03-06T12:06:54.594Z,986.76
2018-03-06T12:07:54.916Z,986.79
2018-03-06T12:08:54.828Z,986.79
2018-03-06T12:09:54.618Z,986.80
2018-03-06T12:10:54.682Z,986.81
2018-03-06T12:11:54.717Z,986.78
2018-03-06T12:12:55.949Z,986.77
2018-03-06T12:13:55.124Z,986.75
2018-03-06T12:14:54.857Z,986.77
2018-03-06T12:15:54.861Z,986.76
2018-03-06T12:16:54.909Z,986.72
2018-03-06T12:17:54.950Z,986.71
2018-03-06T12:18:54.956Z,986.71
2018-03-06T12:19:55.377Z,986.74
2018-03-06T12:20:55.022Z,986.71
2018-03-06T12:21:55.077Z,986.64
2018-03-06T12:22:55.141Z,986.65
2018-03-06T12:23:55.127Z,986.66
2018-03-06T12:24:55.135Z,986.64
2018-03-06T12:25:55.488Z,986.60
2018-03-06T12:26:55.247Z,986.60
2018-03-06T12:27:55.251Z,986.63
2018-03-06T12:28:55.287Z,986.62
2018-03-06T12:29:55.368Z,986.63